Terminal Aerodrome Forecast
Issued by NWS Bismarck, ND

Home | Current Version | Previous Version | Text Only | Print | Product List | Glossary Off
Versions: 1 2 3 4 5 6 7 8 9 10 11 12 13 14 15

799
FTUS43 KBIS 141132
TAFBIS
TAF
KBIS 141132Z 1412/1512 05006KT P6SM SCT020 BKN200
     FM141700 01011KT P6SM SCT020 OVC150
     FM142000 33016G24KT P6SM SCT030 BKN200
     FM150000 33009KT P6SM FEW025 SCT250
     FM150900 22004KT P6SM FEW035 FEW200=

USA.gov is the U.S. government's official web portal to all federal, state and local government web resources and services.